Time;durP1;ratioP1;P1;durP2;ratioP2;P2;SDS_P1;SDS_P2;PMS_P1;PMS_P2;Temp;Humidity;BMP_temperature;BMP_pressure;BME280_temperature;BME280_humidity;BME280_pressure;Samples;Min_cycle;Max_cycle;Signal;HPM_P1;HPM_P2
2024/02/21 00:01:08;;;;;;;1.40;1.17;;;7.50;1.00;;;;;;5073966;28;20037;-72
2024/02/21 00:03:34;;;;;;;1.30;1.02;;;7.50;1.00;;;;;;5069372;28;20037;-73
2024/02/21 00:06:00;;;;;;;0.30;0.28;;;7.50;1.00;;;;;;5080372;28;20040;-72
2024/02/21 00:08:26;;;;;;;1.40;0.73;;;7.50;1.00;;;;;;5076213;28;20063;-71
2024/02/21 00:10:53;;;;;;;2.63;1.40;;;7.50;1.00;;;;;;5081397;28;20036;-71
2024/02/21 00:13:19;;;;;;;6.25;1.10;;;7.50;1.00;;;;;;5078517;28;20040;-72
2024/02/21 00:15:47;;;;;;;6.50;1.23;;;7.50;10.70;;;;;;5079681;28;20465;-71
2024/02/21 00:18:14;;;;;;;1.88;1.50;;;7.50;15.80;;;;;;5080262;28;20040;-71
2024/02/21 00:20:40;;;;;;;0.95;0.63;;;7.50;39.10;;;;;;5079683;28;20467;-71
2024/02/21 00:23:06;;;;;;;0.43;0.43;;;7.50;75.20;;;;;;5079642;28;20028;-71
2024/02/21 00:25:32;;;;;;;0.55;0.55;;;7.40;99.80;;;;;;5078977;28;20024;-72
2024/02/21 00:27:58;;;;;;;0.40;0.38;;;7.40;99.90;;;;;;5080369;28;20033;-72
2024/02/21 00:30:24;;;;;;;1.85;0.57;;;7.40;99.90;;;;;;5079435;28;20028;-72
2024/02/21 00:32:50;;;;;;;0.75;0.73;;;7.40;99.90;;;;;;5078683;28;20047;-72
2024/02/21 00:35:16;;;;;;;0.63;0.63;;;7.30;99.90;;;;;;5078739;28;20031;-72
2024/02/21 00:37:43;;;;;;;1.65;1.08;;;7.30;99.90;;;;;;5077821;28;20048;-72
2024/02/21 00:40:09;;;;;;;0.40;0.40;;;7.30;99.90;;;;;;5076925;28;20041;-72
2024/02/21 00:42:36;;;;;;;8.82;1.92;;;7.20;99.90;;;;;;5080176;28;20047;-73
2024/02/21 00:45:02;;;;;;;1.15;1.05;;;7.20;99.90;;;;;;5079052;28;20358;-72
2024/02/21 00:47:28;;;;;;;3.63;1.90;;;7.20;99.90;;;;;;5079587;28;20396;-72
2024/02/21 00:49:55;;;;;;;0.70;0.70;;;7.20;99.90;;;;;;5078154;28;20032;-73
2024/02/21 00:52:21;;;;;;;0.20;0.20;;;7.20;99.90;;;;;;5081912;28;20457;-72
2024/02/21 00:54:49;;;;;;;0.32;0.32;;;7.20;99.90;;;;;;5072277;28;20036;-71
2024/02/21 00:57:15;;;;;;;0.65;0.65;;;7.20;99.90;;;;;;5079798;28;20044;-72
2024/02/21 00:59:41;;;;;;;0.98;0.90;;;7.20;99.90;;;;;;5078351;28;20033;-72
2024/02/21 01:02:08;;;;;;;0.25;0.25;;;7.20;99.90;;;;;;5079540;28;20032;-72
2024/02/21 01:04:35;;;;;;;0.80;0.80;;;7.20;99.90;;;;;;5075314;28;20040;-72
2024/02/21 01:07:01;;;;;;;2.47;0.77;;;7.10;99.90;;;;;;5080051;28;20032;-72
2024/02/21 01:09:27;;;;;;;0.50;0.50;;;7.10;99.90;;;;;;5077184;28;20051;-72
2024/02/21 01:11:53;;;;;;;0.10;0.10;;;7.10;99.90;;;;;;5083134;28;20032;-72
2024/02/21 01:14:19;;;;;;;0.65;0.65;;;7.00;99.90;;;;;;5077126;28;20040;-72
2024/02/21 01:16:45;;;;;;;1.20;0.52;;;7.00;99.90;;;;;;5076964;28;20049;-71
2024/02/21 01:19:11;;;;;;;0.40;0.40;;;6.90;99.90;;;;;;5078475;28;20485;-72
2024/02/21 01:21:37;;;;;;;7.35;2.90;;;6.90;99.90;;;;;;5079055;28;20465;-72
2024/02/21 01:24:04;;;;;;;6.90;1.70;;;6.90;99.90;;;;;;5077189;28;20035;-72
2024/02/21 01:26:30;;;;;;;0.52;0.52;;;7.00;99.90;;;;;;5076157;28;20039;-72
2024/02/21 01:28:56;;;;;;;16.23;0.95;;;7.00;99.90;;;;;;5080757;28;20032;-72
2024/02/21 01:31:22;;;;;;;2.17;1.65;;;6.90;99.90;;;;;;5077632;28;20056;-73
2024/02/21 01:33:48;;;;;;;4.25;0.85;;;6.90;99.90;;;;;;5078244;28;20046;-72
2024/02/21 01:36:14;;;;;;;0.40;0.40;;;6.90;99.90;;;;;;5075856;28;20048;-71
2024/02/21 01:38:41;;;;;;;0.30;0.30;;;6.90;99.90;;;;;;5081269;28;20031;-72
2024/02/21 01:41:07;;;;;;;0.98;0.98;;;6.90;99.90;;;;;;5076493;28;20052;-72
2024/02/21 01:43:33;;;;;;;0.45;0.45;;;6.80;99.90;;;;;;5076859;28;20041;-72
2024/02/21 01:45:59;;;;;;;0.20;0.20;;;6.80;99.90;;;;;;5066631;28;20040;-72
2024/02/21 01:48:25;;;;;;;1.75;1.38;;;6.80;99.90;;;;;;5078365;28;20474;-74
2024/02/21 01:50:54;;;;;;;0.90;0.70;;;6.80;99.90;;;;;;5078020;28;20032;-72
2024/02/21 01:53:23;;;;;;;0.20;0.20;;;6.80;99.90;;;;;;5077325;28;20040;-72
2024/02/21 01:55:49;;;;;;;2.72;1.55;;;6.80;99.90;;;;;;5070199;28;20377;-74
2024/02/21 01:58:16;;;;;;;1.15;1.08;;;6.80;99.90;;;;;;5070784;28;20041;-72
2024/02/21 02:00:43;;;;;;;2.83;1.45;;;6.90;99.90;;;;;;5060147;28;20500;-72
2024/02/21 02:03:22;;;;;;;0.88;0.82;;;6.90;99.90;;;;;;5080549;28;20469;-72
2024/02/21 02:05:52;;;;;;;0.20;0.20;;;6.90;99.90;;;;;;5084793;28;20415;-72
2024/02/21 02:08:24;;;;;;;0.47;0.47;;;6.90;99.90;;;;;;5078164;28;20033;-72
2024/02/21 02:10:51;;;;;;;5.15;1.75;;;6.90;99.90;;;;;;5070190;28;20062;-72
2024/02/21 02:13:18;;;;;;;0.85;0.85;;;6.90;99.90;;;;;;5086919;28;20036;-72
2024/02/21 02:15:48;;;;;;;0.57;0.57;;;6.90;99.90;;;;;;5079069;28;20039;-72
2024/02/21 02:18:15;;;;;;;1.25;1.00;;;6.90;99.90;;;;;;5074344;28;20357;-72
2024/02/21 02:20:44;;;;;;;1.42;1.02;;;6.90;99.90;;;;;;5067182;28;20354;-72
2024/02/21 02:23:11;;;;;;;0.50;0.40;;;6.90;99.90;;;;;;5082010;28;20028;-72
2024/02/21 02:25:38;;;;;;;0.30;0.30;;;6.80;99.90;;;;;;5080894;28;20039;-72
2024/02/21 02:28:05;;;;;;;8.35;1.15;;;6.80;99.90;;;;;;5081639;28;20032;-72
2024/02/21 02:30:33;;;;;;;2.70;1.38;;;6.80;99.90;;;;;;5079072;28;20380;-73
2024/02/21 02:33:00;;;;;;;1.80;1.70;;;6.80;99.90;;;;;;5076740;28;20044;-72
2024/02/21 02:35:26;;;;;;;0.50;0.50;;;6.80;99.90;;;;;;5078674;28;20051;-72
2024/02/21 02:37:52;;;;;;;0.15;0.15;;;6.80;99.90;;;;;;5074782;28;20043;-72
2024/02/21 02:40:19;;;;;;;2.05;0.93;;;6.70;99.90;;;;;;5077560;28;20043;-71
2024/02/21 02:42:45;;;;;;;0.35;0.35;;;6.70;99.90;;;;;;5077572;28;20076;-71
2024/02/21 02:45:12;;;;;;;0.40;0.40;;;6.70;99.90;;;;;;5079688;28;20036;-73
2024/02/21 02:47:40;;;;;;;2.20;0.75;;;6.70;99.90;;;;;;5075785;28;20025;-73
2024/02/21 02:50:07;;;;;;;0.47;0.47;;;6.60;99.90;;;;;;5085496;28;20033;-74
2024/02/21 02:52:33;;;;;;;0.52;0.52;;;6.60;1.00;;;;;;5058243;28;20040;-74
2024/02/21 02:55:01;;;;;;;0.20;0.20;;;6.50;1.00;;;;;;5084008;28;20036;-73
2024/02/21 02:57:27;;;;;;;2.95;1.65;;;6.50;1.00;;;;;;5083215;28;20067;-71
2024/02/21 02:59:54;;;;;;;1.30;0.95;;;6.50;1.00;;;;;;5081623;28;20040;-73
2024/02/21 03:02:20;;;;;;;1.33;1.27;;;6.40;1.00;;;;;;5082351;28;20373;-73
2024/02/21 03:04:46;;;;;;;2.80;1.67;;;6.40;1.00;;;;;;5080330;28;20032;-73
2024/02/21 03:07:14;;;;;;;1.45;1.17;;;6.40;1.00;;;;;;5080823;28;20028;-73
2024/02/21 03:09:42;;;;;;;1.23;1.13;;;6.40;1.00;;;;;;5078228;28;20358;-72
2024/02/21 03:12:09;;;;;;;9.85;1.08;;;6.40;1.00;;;;;;5078889;28;20033;-71
2024/02/21 03:14:35;;;;;;;2.53;2.13;;;6.40;1.00;;;;;;5084335;28;20035;-72
2024/02/21 03:17:02;;;;;;;1.38;0.70;;;6.30;1.00;;;;;;5082476;28;20039;-73
2024/02/21 03:19:29;;;;;;;3.17;2.08;;;6.30;1.00;;;;;;5078939;28;20047;-73
2024/02/21 03:21:55;;;;;;;5.38;2.63;;;6.30;1.00;;;;;;5082014;28;20081;-73
2024/02/21 03:24:22;;;;;;;0.30;0.30;;;6.30;1.00;;;;;;5080321;28;20044;-73
2024/02/21 03:26:51;;;;;;;1.38;1.27;;;6.30;1.00;;;;;;5079706;28;20028;-73
2024/02/21 03:29:17;;;;;;;0.60;0.52;;;6.30;1.00;;;;;;5082822;28;20043;-73
2024/02/21 03:31:43;;;;;;;0.30;0.30;;;6.20;1.00;;;;;;5079159;28;20028;-73
2024/02/21 03:34:12;;;;;;;0.80;0.80;;;6.20;1.00;;;;;;5081851;28;20032;-73
2024/02/21 03:36:38;;;;;;;0.57;0.57;;;6.10;1.00;;;;;;5079841;28;20036;-73
2024/02/21 03:39:05;;;;;;;0.57;0.57;;;6.10;2.10;;;;;;5080980;28;20047;-73
2024/02/21 03:41:31;;;;;;;1.50;1.40;;;6.00;15.90;;;;;;5076203;28;20059;-73
2024/02/21 03:43:57;;;;;;;1.33;0.77;;;6.00;27.20;;;;;;5079557;28;20037;-73
2024/02/21 03:46:25;;;;;;;0.25;0.25;;;5.90;53.60;;;;;;5084711;28;20035;-73
2024/02/21 03:48:51;;;;;;;1.48;1.38;;;5.90;68.20;;;;;;5080210;28;20405;-73
2024/02/21 03:51:17;;;;;;;1.05;0.95;;;5.80;99.90;;;;;;5076990;28;20059;-71
2024/02/21 03:53:43;;;;;;;6.75;1.95;;;5.80;99.90;;;;;;5079761;28;20032;-74
2024/02/21 03:56:10;;;;;;;0.10;0.10;;;5.90;99.90;;;;;;5078910;28;20028;-73
2024/02/21 03:58:36;;;;;;;0.43;0.43;;;5.90;99.90;;;;;;5083563;28;20472;-73
2024/02/21 04:01:03;;;;;;;0.65;0.65;;;6.00;99.90;;;;;;5079042;28;20036;-73
2024/02/21 04:03:30;;;;;;;1.08;1.02;;;6.10;99.90;;;;;;5082028;28;20504;-73
2024/02/21 04:05:56;;;;;;;1.10;1.02;;;6.20;99.90;;;;;;5060652;28;20032;-73
2024/02/21 04:08:23;;;;;;;0.10;0.10;;;6.20;99.90;;;;;;5082909;28;20472;-73
2024/02/21 04:10:49;;;;;;;0.57;0.57;;;6.30;99.90;;;;;;5078277;28;20047;-73
2024/02/21 04:13:16;;;;;;;0.80;0.68;;;6.30;99.90;;;;;;5079921;28;20032;-71
2024/02/21 04:15:42;;;;;;;0.98;0.93;;;6.30;99.90;;;;;;5078499;28;20024;-73
2024/02/21 04:18:08;;;;;;;0.75;0.70;;;6.40;99.90;;;;;;5079839;28;20044;-71
2024/02/21 04:20:35;;;;;;;0.65;0.43;;;6.40;99.90;;;;;;5078550;28;20039;-72
2024/02/21 04:23:01;;;;;;;1.85;1.75;;;6.40;99.90;;;;;;5080136;28;20036;-72
2024/02/21 04:25:27;;;;;;;0.38;0.38;;;6.40;99.90;;;;;;5079751;28;20369;-72
2024/02/21 04:27:53;;;;;;;2.97;2.70;;;6.40;99.90;;;;;;5082055;28;20032;-72
2024/02/21 04:30:19;;;;;;;0.77;0.77;;;6.30;99.90;;;;;;5078380;28;20032;-73
2024/02/21 04:32:45;;;;;;;0.20;0.20;;;6.30;99.90;;;;;;5061817;28;20036;-72
2024/02/21 04:35:12;;;;;;;0.10;0.10;;;6.20;99.90;;;;;;5079590;28;20032;-72
2024/02/21 04:37:38;;;;;;;6.43;0.75;;;6.20;99.90;;;;;;5072739;28;20040;-72
2024/02/21 04:40:04;;;;;;;0.45;0.45;;;6.20;99.90;;;;;;5078999;28;20342;-72
2024/02/21 04:42:31;;;;;;;0.50;0.50;;;6.20;99.90;;;;;;5077847;28;20049;-73
2024/02/21 04:44:57;;;;;;;0.80;0.80;;;6.10;99.90;;;;;;5053718;28;20404;-73
2024/02/21 04:47:26;;;;;;;1.13;0.90;;;6.00;99.90;;;;;;5075691;28;20028;-72
2024/02/21 04:49:52;;;;;;;0.77;0.77;;;6.00;99.90;;;;;;5079957;28;20576;-74
2024/02/21 04:52:18;;;;;;;0.17;0.17;;;5.90;99.90;;;;;;5066950;28;20036;-72
2024/02/21 04:54:44;;;;;;;5.93;1.45;;;5.90;99.90;;;;;;5069836;28;20071;-72
2024/02/21 04:57:11;;;;;;;2.25;1.45;;;5.80;99.90;;;;;;5064507;28;20048;-72
2024/02/21 04:59:37;;;;;;;1.75;1.48;;;5.80;99.90;;;;;;5068894;28;20334;-72
2024/02/21 05:02:03;;;;;;;1.98;1.75;;;5.80;99.90;;;;;;5066309;28;20039;-74
2024/02/21 05:04:29;;;;;;;0.90;0.90;;;5.80;99.90;;;;;;5071359;28;20037;-73
2024/02/21 05:06:56;;;;;;;0.40;0.40;;;5.80;99.90;;;;;;5069898;28;20032;-72
2024/02/21 05:09:22;;;;;;;0.73;0.73;;;5.80;99.90;;;;;;5079626;28;20028;-72
2024/02/21 05:11:48;;;;;;;0.17;0.17;;;5.80;99.90;;;;;;5077827;28;20485;-72
2024/02/21 05:14:14;;;;;;;1.13;1.02;;;5.70;99.90;;;;;;5077842;28;20032;-72
2024/02/21 05:16:40;;;;;;;1.10;1.10;;;5.80;99.90;;;;;;5079529;28;20037;-72
2024/02/21 05:19:06;;;;;;;0.55;0.55;;;5.80;99.90;;;;;;5078791;28;20032;-73
2024/02/21 05:21:32;;;;;;;0.52;0.52;;;5.80;99.90;;;;;;5078581;28;20445;-73
2024/02/21 05:23:59;;;;;;;1.70;1.58;;;5.80;99.90;;;;;;5078824;28;20025;-72
2024/02/21 05:26:26;;;;;;;0.30;0.30;;;5.70;99.90;;;;;;5077934;28;20032;-72
2024/02/21 05:28:53;;;;;;;0.98;0.52;;;5.70;99.90;;;;;;5059416;28;20384;-72
2024/02/21 05:31:20;;;;;;;1.73;1.27;;;5.80;99.90;;;;;;5081880;28;20043;-72
2024/02/21 05:33:46;;;;;;;1.60;1.50;;;5.80;99.90;;;;;;5076067;28;20043;-72
2024/02/21 05:36:13;;;;;;;2.30;1.17;;;5.90;99.90;;;;;;5077618;28;20028;-72
2024/02/21 05:38:39;;;;;;;1.55;1.45;;;5.90;99.90;;;;;;5062668;28;20373;-73
2024/02/21 05:41:05;;;;;;;0.50;0.50;;;6.00;99.90;;;;;;5077477;28;20048;-73
2024/02/21 05:43:32;;;;;;;1.38;1.27;;;6.00;99.90;;;;;;5077834;28;20039;-75
2024/02/21 05:45:58;;;;;;;1.45;1.35;;;6.00;94.30;;;;;;5077590;28;20036;-72
2024/02/21 05:48:24;;;;;;;1.38;1.27;;;5.90;93.40;;;;;;5079282;28;20032;-72
2024/02/21 05:50:51;;;;;;;1.90;1.27;;;6.00;90.20;;;;;;5077941;28;20033;-72
2024/02/21 05:53:17;;;;;;;5.43;0.98;;;5.90;87.20;;;;;;5074911;28;20036;-73
2024/02/21 05:55:44;;;;;;;4.18;1.38;;;5.90;77.30;;;;;;5081558;28;20024;-73
2024/02/21 05:58:13;;;;;;;1.80;0.60;;;5.80;77.90;;;;;;5080467;28;20147;-72
2024/02/21 06:00:39;;;;;;;1.95;1.58;;;5.70;90.50;;;;;;5081196;28;20476;-72
2024/02/21 06:03:07;;;;;;;1.40;0.55;;;5.70;95.40;;;;;;5075386;28;20039;-72
2024/02/21 06:05:38;;;;;;;1.27;0.77;;;5.70;97.60;;;;;;5079610;28;20426;-74
2024/02/21 06:08:05;;;;;;;0.20;0.20;;;5.60;99.90;;;;;;5089062;28;20036;-72
2024/02/21 06:10:31;;;;;;;8.50;1.13;;;5.60;99.80;;;;;;5086843;28;20024;-72
2024/02/21 06:12:57;;;;;;;2.15;1.40;;;5.50;99.90;;;;;;5083838;28;20043;-73
2024/02/21 06:15:23;;;;;;;3.13;1.80;;;5.50;99.90;;;;;;5078978;28;20032;-72
2024/02/21 06:17:49;;;;;;;0.50;0.50;;;5.40;99.90;;;;;;5080271;28;20509;-72
2024/02/21 06:20:18;;;;;;;20.52;1.52;;;5.40;99.90;;;;;;5080083;28;20104;-73
2024/02/21 06:22:45;;;;;;;0.95;0.88;;;5.40;99.90;;;;;;5077760;28;20036;-72
2024/02/21 06:25:11;;;;;;;0.93;0.93;;;5.40;99.90;;;;;;5081861;28;20035;-73
2024/02/21 06:27:37;;;;;;;0.20;0.20;;;5.40;99.90;;;;;;5086697;28;20035;-74
2024/02/21 06:30:03;;;;;;;0.22;0.22;;;5.30;99.90;;;;;;5083312;28;20028;-73
2024/02/21 06:32:29;;;;;;;0.40;0.40;;;5.30;99.90;;;;;;5081116;28;20035;-73
2024/02/21 06:34:57;;;;;;;1.02;0.70;;;5.30;99.90;;;;;;5081632;28;20039;-73
2024/02/21 06:37:23;;;;;;;1.65;1.23;;;5.30;99.90;;;;;;5083237;28;20035;-73
2024/02/21 06:39:49;;;;;;;0.80;0.80;;;5.30;99.90;;;;;;5080933;28;20401;-74
2024/02/21 06:42:15;;;;;;;0.75;0.75;;;5.30;99.90;;;;;;5066727;28;20048;-73
2024/02/21 06:44:41;;;;;;;0.82;0.80;;;5.30;99.90;;;;;;5078335;28;20036;-73
2024/02/21 06:47:08;;;;;;;0.28;0.28;;;5.20;99.90;;;;;;5072361;28;20064;-74
2024/02/21 06:49:34;;;;;;;15.98;0.77;;;5.30;99.90;;;;;;5082045;28;20469;-75
2024/02/21 06:52:00;;;;;;;1.58;1.48;;;5.30;99.80;;;;;;5081530;28;20045;-74
2024/02/21 06:54:26;;;;;;;1.90;1.45;;;5.40;95.70;;;;;;5077984;28;20028;-73
2024/02/21 06:56:53;;;;;;;1.40;0.65;;;5.40;84.60;;;;;;5081686;28;20037;-74
2024/02/21 06:59:19;;;;;;;0.50;0.50;;;5.40;62.80;;;;;;5079658;28;20036;-74
2024/02/21 07:01:48;;;;;;;0.55;0.47;;;5.50;40.90;;;;;;5080630;28;20059;-73
2024/02/21 07:04:14;;;;;;;0.93;0.75;;;5.50;27.50;;;;;;5080703;28;20063;-75
2024/02/21 07:06:41;;;;;;;0.32;0.32;;;5.50;10.20;;;;;;5078371;28;20485;-74
2024/02/21 07:09:07;;;;;;;0.63;0.63;;;5.60;1.00;;;;;;5085789;28;20055;-74
2024/02/21 07:11:33;;;;;;;0.43;0.43;;;5.60;1.00;;;;;;5083190;28;20362;-74
2024/02/21 07:13:59;;;;;;;0.63;0.63;;;5.70;1.00;;;;;;5079252;28;20044;-75
2024/02/21 07:16:26;;;;;;;2.20;1.98;;;5.70;1.00;;;;;;5069287;28;20032;-75
2024/02/21 07:18:52;;;;;;;0.45;0.45;;;5.80;1.00;;;;;;5079801;28;20044;-74
2024/02/21 07:21:18;;;;;;;0.38;0.38;;;5.80;1.00;;;;;;5085179;28;20028;-75
2024/02/21 07:23:44;;;;;;;5.80;1.13;;;6.00;1.00;;;;;;5085902;28;20028;-74
2024/02/21 07:26:11;;;;;;;1.23;1.13;;;6.00;1.00;;;;;;5093151;28;20044;-75
2024/02/21 07:28:37;;;;;;;4.18;1.17;;;6.10;1.00;;;;;;5100185;28;20039;-75
2024/02/21 07:31:03;;;;;;;0.85;0.85;;;6.20;1.00;;;;;;5100310;28;20043;-73
2024/02/21 07:33:30;;;;;;;0.77;0.77;;;6.30;1.00;;;;;;5094978;28;20137;-73
2024/02/21 07:35:57;;;;;;;0.25;0.25;;;6.40;1.00;;;;;;5063030;28;20865;-73
2024/02/21 07:38:23;;;;;;;0.38;0.38;;;6.50;99.90;;;;;;5075723;28;20392;-74
2024/02/21 07:40:49;;;;;;;0.47;0.47;;;6.60;99.90;;;;;;5084490;28;20052;-73
2024/02/21 07:43:15;;;;;;;1.33;0.80;;;6.70;99.90;;;;;;5078723;28;20052;-73
2024/02/21 07:45:41;;;;;;;0.50;0.50;;;6.80;99.90;;;;;;5080048;28;20039;-75
2024/02/21 07:48:08;;;;;;;0.40;0.40;;;6.90;99.90;;;;;;5077502;28;20045;-73
2024/02/21 07:50:34;;;;;;;0.22;0.22;;;7.00;99.90;;;;;;5081450;28;20033;-73
2024/02/21 07:53:00;;;;;;;2.83;1.48;;;7.00;99.90;;;;;;5078493;28;20020;-73
2024/02/21 07:55:26;;;;;;;0.98;0.98;;;7.10;99.90;;;;;;5082368;28;20028;-73
2024/02/21 07:57:52;;;;;;;2.20;1.23;;;7.20;99.90;;;;;;5079530;28;20044;-73
2024/02/21 08:00:19;;;;;;;5.45;1.92;;;7.20;99.90;;;;;;5079078;28;20043;-73
2024/02/21 08:02:46;;;;;;;0.63;0.50;;;7.30;99.90;;;;;;5080003;28;20028;-74
2024/02/21 08:05:12;;;;;;;3.08;0.57;;;7.50;99.90;;;;;;5082332;28;20381;-74
2024/02/21 08:07:38;;;;;;;1.33;1.23;;;7.50;79.10;;;;;;5079784;28;20035;-76
2024/02/21 08:10:08;;;;;;;0.57;0.57;;;7.60;66.40;;;;;;5082095;28;20044;-73
2024/02/21 08:12:34;;;;;;;0.20;0.20;;;7.60;48.40;;;;;;5080674;28;20024;-73
2024/02/21 08:15:01;;;;;;;0.88;0.47;;;7.70;34.50;;;;;;5090744;28;20028;-73
2024/02/21 08:17:27;;;;;;;2.22;1.50;;;7.70;8.50;;;;;;5090907;28;20020;-73
2024/02/21 08:19:53;;;;;;;2.50;1.95;;;7.80;13.10;;;;;;5081226;28;20067;-73
2024/02/21 08:22:19;;;;;;;2.85;1.58;;;7.90;1.00;;;;;;5082436;28;20024;-74
2024/02/21 08:24:46;;;;;;;1.05;1.02;;;7.90;1.00;;;;;;5086390;28;20039;-73
2024/02/21 08:27:12;;;;;;;0.50;0.50;;;7.90;1.00;;;;;;5091029;28;20095;-74
2024/02/21 08:29:38;;;;;;;15.68;1.08;;;8.00;1.00;;;;;;5089826;28;20036;-76
2024/02/21 08:32:04;;;;;;;1.85;1.23;;;7.90;1.00;;;;;;5085485;28;20049;-74
2024/02/21 08:34:33;;;;;;;0.55;0.55;;;7.80;1.00;;;;;;5061975;28;20527;-73
2024/02/21 08:37:00;;;;;;;2.17;1.13;;;7.80;1.00;;;;;;5089055;28;20020;-73
2024/02/21 08:39:28;;;;;;;1.52;1.42;;;7.80;1.00;;;;;;5073944;28;20036;-73
2024/02/21 08:41:54;;;;;;;2.55;0.88;;;7.80;1.00;;;;;;5087720;28;20055;-73
2024/02/21 08:44:23;;;;;;;0.75;0.75;;;7.70;1.00;;;;;;5085817;28;20032;-73
2024/02/21 08:46:49;;;;;;;0.82;0.82;;;7.80;1.00;;;;;;5082545;28;20032;-74
2024/02/21 08:49:15;;;;;;;0.65;0.60;;;7.80;1.00;;;;;;5090496;28;20039;-73
2024/02/21 08:51:43;;;;;;;4.70;0.98;;;7.90;1.00;;;;;;5086850;28;20058;-73
2024/02/21 08:54:09;;;;;;;0.82;0.75;;;7.90;1.00;;;;;;5080729;28;20425;-73
2024/02/21 08:56:35;;;;;;;1.88;1.42;;;7.90;1.00;;;;;;5064485;28;20484;-73
2024/02/21 08:59:02;;;;;;;1.15;1.05;;;8.00;1.00;;;;;;5081537;28;20054;-73
2024/02/21 09:01:28;;;;;;;2.47;1.10;;;8.00;1.00;;;;;;5086320;28;20028;-73
2024/02/21 09:03:56;;;;;;;0.63;0.45;;;8.10;1.00;;;;;;5081693;28;20028;-74
2024/02/21 09:06:22;;;;;;;5.85;0.82;;;8.20;1.00;;;;;;5086993;28;20027;-74
2024/02/21 09:08:49;;;;;;;0.65;0.57;;;8.30;1.00;;;;;;5088270;28;20339;-73
2024/02/21 09:11:15;;;;;;;1.40;1.30;;;8.40;1.00;;;;;;5070743;28;20032;-73
2024/02/21 09:13:42;;;;;;;1.00;0.60;;;8.50;1.00;;;;;;5079050;28;20044;-74
2024/02/21 09:16:08;;;;;;;0.82;0.82;;;8.70;99.90;;;;;;5082264;28;20033;-73
2024/02/21 09:18:35;;;;;;;0.43;0.43;;;8.80;99.90;;;;;;5077816;28;20040;-72
2024/02/21 09:21:01;;;;;;;8.18;0.70;;;9.10;99.90;;;;;;5078639;28;20123;-73
2024/02/21 09:23:27;;;;;;;0.88;0.88;;;9.30;99.90;;;;;;5079365;28;20377;-73
2024/02/21 09:25:55;;;;;;;1.45;1.05;;;9.50;99.90;;;;;;5076071;28;20036;-73
2024/02/21 09:28:22;;;;;;;0.63;0.63;;;9.60;99.90;;;;;;5082532;28;20039;-73
2024/02/21 09:30:48;;;;;;;0.82;0.77;;;9.70;99.90;;;;;;5082773;28;20039;-73
2024/02/21 09:33:14;;;;;;;1.17;0.73;;;9.70;99.90;;;;;;5079186;28;20033;-74
2024/02/21 09:35:41;;;;;;;1.10;0.85;;;9.70;99.90;;;;;;5077449;28;20032;-75
2024/02/21 09:38:07;;;;;;;0.95;0.82;;;9.70;99.90;;;;;;5080618;28;20032;-72
2024/02/21 09:40:33;;;;;;;1.17;0.90;;;9.80;99.90;;;;;;5079206;28;20413;-73
2024/02/21 09:43:06;;;;;;;0.63;0.63;;;9.90;99.90;;;;;;5080115;28;20043;-72
2024/02/21 09:45:34;;;;;;;0.25;0.25;;;9.90;99.90;;;;;;5053455;28;20021;-72
2024/02/21 09:48:19;;;;;;;0.30;0.30;;;9.90;99.90;;;;;;5068529;28;20040;-72
2024/02/21 09:50:49;;;;;;;5.65;0.98;;;9.90;99.90;;;;;;5065117;28;20043;-73
2024/02/21 09:53:15;;;;;;;0.47;0.47;;;10.00;99.90;;;;;;5080955;28;20032;-73
2024/02/21 09:55:43;;;;;;;0.47;0.47;;;9.90;99.90;;;;;;5079133;28;20043;-73
2024/02/21 09:58:10;;;;;;;0.93;0.93;;;9.90;99.90;;;;;;5080653;28;20040;-72
2024/02/21 10:00:36;;;;;;;0.57;0.50;;;9.90;99.90;;;;;;5075580;28;20035;-72
2024/02/21 10:03:08;;;;;;;0.73;0.73;;;9.90;99.90;;;;;;5079283;28;20038;-72
2024/02/21 10:05:36;;;;;;;0.50;0.50;;;10.00;99.90;;;;;;5077094;28;20044;-72
2024/02/21 10:08:03;;;;;;;4.18;0.95;;;9.90;99.90;;;;;;5058713;28;20364;-72
2024/02/21 10:10:30;;;;;;;4.55;1.77;;;10.10;99.90;;;;;;5058698;28;20036;-72
2024/02/21 10:12:57;;;;;;;0.30;0.30;;;10.20;99.90;;;;;;5080237;28;20041;-72
2024/02/21 10:15:24;;;;;;;0.75;0.75;;;10.20;99.90;;;;;;5079159;28;20377;-72
2024/02/21 10:18:09;;;;;;;0.38;0.38;;;10.30;95.60;;;;;;5077968;28;20036;-72
2024/02/21 10:20:35;;;;;;;0.85;0.82;;;10.40;90.50;;;;;;5069188;28;20378;-73
2024/02/21 10:23:07;;;;;;;3.40;1.65;;;10.40;61.00;;;;;;5070106;28;20242;-72
2024/02/21 10:25:41;;;;;;;5.82;0.82;;;10.30;70.90;;;;;;5079358;28;20036;-72
2024/02/21 10:28:08;;;;;;;0.28;0.28;;;10.40;45.10;;;;;;5077986;28;20473;-72
2024/02/21 10:30:34;;;;;;;0.20;0.20;;;10.50;28.30;;;;;;5076684;28;20036;-72
2024/02/21 10:33:00;;;;;;;1.98;1.40;;;10.50;31.10;;;;;;5076622;28;20033;-72
2024/02/21 10:35:28;;;;;;;2.85;1.17;;;10.50;20.90;;;;;;5080158;28;20385;-72
2024/02/21 10:37:58;;;;;;;1.05;0.88;;;10.50;23.00;;;;;;5077057;28;20052;-73
2024/02/21 10:40:26;;;;;;;12.00;1.13;;;10.60;26.10;;;;;;5074727;28;20041;-72
2024/02/21 10:42:58;;;;;;;0.20;0.20;;;10.60;14.30;;;;;;5076233;28;20040;-72
2024/02/21 10:45:35;;;;;;;0.65;0.43;;;10.80;1.00;;;;;;5078847;28;20044;-74
2024/02/21 10:48:17;;;;;;;0.40;0.40;;;10.80;1.00;;;;;;5080948;28;20029;-72
2024/02/21 10:50:43;;;;;;;1.10;0.95;;;10.90;1.00;;;;;;5078970;28;20486;-74
2024/02/21 10:53:19;;;;;;;1.02;0.50;;;11.00;1.00;;;;;;5074775;28;20028;-72
2024/02/21 10:55:57;;;;;;;0.50;0.50;;;11.00;1.00;;;;;;5077768;28;20047;-73
2024/02/21 10:58:25;;;;;;;0.28;0.28;;;11.10;1.00;;;;;;5077456;28;20385;-72
2024/02/21 11:00:52;;;;;;;4.68;0.95;;;11.30;1.00;;;;;;5060366;28;20045;-72
2024/02/21 11:03:18;;;;;;;3.72;0.98;;;11.30;1.00;;;;;;5066621;28;20388;-72
2024/02/21 11:05:46;;;;;;;1.27;0.55;;;11.30;1.00;;;;;;5078215;28;20036;-73
2024/02/21 11:08:12;;;;;;;0.43;0.43;;;11.40;1.00;;;;;;5081612;28;20032;-72
2024/02/21 11:10:40;;;;;;;0.73;0.30;;;11.30;1.00;;;;;;5081432;28;20028;-73
2024/02/21 11:13:08;;;;;;;3.17;0.75;;;11.40;1.00;;;;;;5079168;28;20036;-72
2024/02/21 11:15:34;;;;;;;0.20;0.20;;;11.60;1.00;;;;;;5078970;28;20446;-72
2024/02/21 11:18:01;;;;;;;5.28;1.20;;;11.60;1.00;;;;;;5081070;28;20037;-72
2024/02/21 11:20:34;;;;;;;7.97;0.40;;;11.60;1.00;;;;;;5083404;28;20093;-72
2024/02/21 11:23:01;;;;;;;1.00;0.60;;;11.50;1.00;;;;;;5081848;28;20370;-72
2024/02/21 11:25:30;;;;;;;2.53;0.82;;;11.40;1.00;;;;;;5078960;28;20377;-72
2024/02/21 11:28:04;;;;;;;0.35;0.25;;;11.50;1.00;;;;;;5081086;28;20024;-72
2024/02/21 11:30:32;;;;;;;1.02;0.55;;;11.60;1.00;;;;;;5078363;28;20035;-72
2024/02/21 11:33:06;;;;;;;0.75;0.68;;;11.60;1.00;;;;;;5079172;28;20032;-73
2024/02/21 11:35:34;;;;;;;2.15;0.47;;;11.70;1.00;;;;;;5081928;28;20043;-72
2024/02/21 11:38:16;;;;;;;0.68;0.60;;;11.60;1.00;;;;;;5080553;28;20024;-72
2024/02/21 11:40:46;;;;;;;0.30;0.30;;;11.80;1.00;;;;;;5082737;28;20060;-72
2024/02/21 11:43:12;;;;;;;0.20;0.20;;;11.80;1.00;;;;;;5079599;28;20041;-72
2024/02/21 11:45:39;;;;;;;1.85;0.52;;;11.70;1.00;;;;;;5081655;28;20358;-72
2024/02/21 11:48:07;;;;;;;0.57;0.57;;;11.70;1.00;;;;;;5083168;28;20035;-73
2024/02/21 11:50:36;;;;;;;0.13;0.13;;;11.70;1.00;;;;;;5089226;28;20033;-72
2024/02/21 11:53:02;;;;;;;2.40;1.17;;;11.60;1.00;;;;;;5084967;28;20047;-72
2024/02/21 11:55:29;;;;;;;0.60;0.60;;;11.60;1.00;;;;;;5085698;28;20020;-73
2024/02/21 11:57:55;;;;;;;0.73;0.40;;;11.60;1.00;;;;;;5087511;28;20036;-72
2024/02/21 12:00:24;;;;;;;0.98;0.57;;;11.60;1.00;;;;;;5087497;28;20453;-73
2024/02/21 12:02:50;;;;;;;0.80;0.63;;;11.50;1.00;;;;;;5081008;28;20050;-73
2024/02/21 12:05:18;;;;;;;0.10;0.10;;;11.50;1.00;;;;;;5079713;28;20469;-72
2024/02/21 12:07:45;;;;;;;0.17;0.17;;;11.50;1.00;;;;;;5079093;28;20055;-73
2024/02/21 12:10:12;;;;;;;0.73;0.73;;;11.60;1.00;;;;;;5081980;28;20040;-73
2024/02/21 12:12:38;;;;;;;0.90;0.77;;;11.60;1.00;;;;;;5083517;28;20036;-73
2024/02/21 12:15:06;;;;;;;0.55;0.55;;;11.70;1.00;;;;;;5081102;28;20473;-73
2024/02/21 12:17:40;;;;;;;0.20;0.20;;;11.70;1.00;;;;;;5080530;28;20032;-73
2024/02/21 12:20:11;;;;;;;0.30;0.30;;;11.70;1.00;;;;;;5076739;28;20485;-73
2024/02/21 12:22:38;;;;;;;0.10;0.10;;;11.80;1.00;;;;;;5083949;28;20047;-73
2024/02/21 12:25:15;;;;;;;9.13;1.35;;;11.70;1.00;;;;;;5083524;28;20024;-73
2024/02/21 12:27:41;;;;;;;1.40;0.55;;;11.70;1.00;;;;;;5088249;28;20405;-74
2024/02/21 12:30:09;;;;;;;0.40;0.40;;;11.70;1.00;;;;;;5078967;28;20278;-73
2024/02/21 12:32:36;;;;;;;0.68;0.68;;;11.80;1.00;;;;;;5085854;28;20040;-72
2024/02/21 12:35:03;;;;;;;1.05;0.75;;;11.80;1.00;;;;;;5088976;28;20033;-73
2024/02/21 12:37:29;;;;;;;0.85;0.52;;;11.80;1.00;;;;;;5090677;28;20020;-72
2024/02/21 12:39:56;;;;;;;0.82;0.50;;;11.80;1.00;;;;;;5087629;28;20381;-73
2024/02/21 12:42:23;;;;;;;1.45;1.35;;;11.70;99.90;;;;;;5086612;28;20859;-73
2024/02/21 12:44:49;;;;;;;0.65;0.65;;;11.90;1.00;;;;;;5067009;28;20036;-73
2024/02/21 12:47:16;;;;;;;0.45;0.45;;;11.80;99.90;;;;;;5089361;28;20036;-72
2024/02/21 12:49:42;;;;;;;0.50;0.50;;;11.80;99.90;;;;;;5085865;28;20041;-73
2024/02/21 12:52:08;;;;;;;0.55;0.55;;;11.80;99.90;;;;;;5082006;28;20047;-73
2024/02/21 12:54:34;;;;;;;2.05;1.13;;;11.90;1.00;;;;;;5090419;28;20031;-73
2024/02/21 12:57:02;;;;;;;5.07;2.08;;;11.90;99.90;;;;;;5089625;28;20039;-73